Time;durP1;ratioP1;P1;durP2;ratioP2;P2;SDS_P1;SDS_P2;PMS_P1;PMS_P2;Temp;Humidity;BMP_temperature;BMP_pressure;BME280_temperature;BME280_humidity;BME280_pressure;Samples;Min_cycle;Max_cycle;Signal;HPM_P1;HPM_P2
2022/03/20 00:00:44;;;;;;;4.00;0.57;;;;;;;15.37;33.37;101313.56;4953741;29;20055;-72
2022/03/20 00:03:14;;;;;;;2.55;0.52;;;;;;;15.38;34.47;101320.53;4952686;29;20043;-73
2022/03/20 00:05:43;;;;;;;1.40;0.45;;;;;;;15.32;32.98;101299.56;4953322;29;20134;-73
2022/03/20 00:08:14;;;;;;;2.08;0.80;;;;;;;15.40;32.19;101324.06;4954093;29;20453;-72
2022/03/20 00:10:44;;;;;;;2.03;0.47;;;;;;;15.38;32.88;101317.94;4953405;29;20051;-72
2022/03/20 00:13:15;;;;;;;2.08;0.57;;;;;;;15.39;32.21;101323.19;4951818;29;20082;-73
2022/03/20 00:15:44;;;;;;;3.33;0.55;;;;;;;15.36;31.89;101330.06;4953272;29;20055;-73
2022/03/20 00:18:14;;;;;;;0.98;0.40;;;;;;;15.33;30.96;101332.63;4952093;28;20055;-72
2022/03/20 00:20:44;;;;;;;1.67;0.40;;;;;;;15.32;32.62;101338.66;4953004;29;20075;-72
2022/03/20 00:23:16;;;;;;;1.45;0.47;;;;;;;15.35;32.36;101343.97;4952662;29;20134;-74
2022/03/20 00:25:45;;;;;;;2.75;0.70;;;;;;;15.31;32.50;101340.41;4953427;29;20067;-76
2022/03/20 00:28:15;;;;;;;2.85;0.60;;;;;;;15.21;33.86;101341.97;4953596;29;20058;-74
2022/03/20 00:30:44;;;;;;;2.88;0.60;;;;;;;15.14;33.53;101360.94;4952820;29;20107;-74
2022/03/20 00:33:12;;;;;;;2.47;0.65;;;;;;;15.00;33.53;101367.56;4941206;29;20044;-73
2022/03/20 00:35:41;;;;;;;1.38;0.50;;;;;;;14.92;35.19;101369.16;4953218;29;20137;-73
2022/03/20 00:38:10;;;;;;;1.17;0.45;;;;;;;14.80;35.31;101385.41;4952982;29;20051;-71
2022/03/20 00:40:40;;;;;;;1.25;0.43;;;;;;;14.66;35.02;101377.28;4953332;29;20047;-73
2022/03/20 00:43:09;;;;;;;1.75;0.65;;;;;;;14.53;34.90;101389.09;4953268;28;20055;-73
2022/03/20 00:45:39;;;;;;;3.03;0.50;;;;;;;14.41;36.37;101391.41;4954006;29;20051;-73
2022/03/20 00:48:08;;;;;;;2.63;0.55;;;;;;;14.32;36.66;101392.06;4955109;29;20046;-73
2022/03/20 00:50:37;;;;;;;2.35;0.50;;;;;;;14.22;36.67;101390.06;4956341;28;20058;-73
2022/03/20 00:53:06;;;;;;;2.83;0.50;;;;;;;14.12;36.15;101394.16;4955040;29;20047;-75
2022/03/20 00:55:34;;;;;;;1.25;0.50;;;;;;;13.97;37.30;101399.88;4953351;29;20122;-72
2022/03/20 00:58:04;;;;;;;1.42;0.45;;;;;;;13.86;37.55;101406.50;4953524;29;20066;-74
2022/03/20 01:00:33;;;;;;;6.75;0.68;;;;;;;13.81;38.90;101408.09;4952689;29;20138;-73
2022/03/20 01:03:02;;;;;;;1.10;0.45;;;;;;;13.74;38.35;101416.56;4951844;29;20051;-74
2022/03/20 01:05:31;;;;;;;2.17;0.50;;;;;;;13.62;37.85;101412.78;4952688;29;20047;-72
2022/03/20 01:08:00;;;;;;;1.95;0.50;;;;;;;13.51;38.18;101419.41;4952647;29;20400;-72
2022/03/20 01:10:28;;;;;;;0.73;0.43;;;;;;;13.35;38.54;101436.31;4952574;29;20957;-74
2022/03/20 01:12:57;;;;;;;1.38;0.50;;;;;;;13.23;39.91;101437.63;4952074;29;20083;-73
2022/03/20 01:15:27;;;;;;;4.57;0.65;;;;;;;13.12;40.23;101440.78;4952693;29;20102;-72
2022/03/20 01:17:56;;;;;;;1.40;0.55;;;;;;;13.05;40.64;101449.22;4952980;28;20106;-73
2022/03/20 01:20:24;;;;;;;1.02;0.30;;;;;;;12.99;39.41;101449.94;4952585;29;20138;-74
2022/03/20 01:22:53;;;;;;;0.90;0.32;;;;;;;12.92;40.30;101458.38;4952072;28;20085;-74
2022/03/20 01:25:21;;;;;;;1.05;0.43;;;;;;;12.82;39.88;101455.44;4952522;29;20457;-74
2022/03/20 01:27:50;;;;;;;1.25;0.47;;;;;;;12.73;39.83;101459.50;4952195;29;20051;-73
2022/03/20 01:30:18;;;;;;;0.63;0.47;;;;;;;12.65;39.09;101460.97;4951820;28;20145;-71
2022/03/20 01:32:48;;;;;;;1.55;0.60;;;;;;;12.55;38.25;101458.91;4938527;29;20122;-71
2022/03/20 01:35:17;;;;;;;2.67;0.30;;;;;;;12.47;38.06;101465.56;4951861;29;20138;-70
2022/03/20 01:37:45;;;;;;;2.03;0.43;;;;;;;12.36;38.20;101467.81;4953030;29;20055;-72
2022/03/20 01:40:14;;;;;;;1.75;0.50;;;;;;;12.27;39.32;101476.16;4952281;29;20066;-72
2022/03/20 01:42:43;;;;;;;3.15;0.63;;;;;;;12.21;39.02;101480.25;4951871;28;20131;-72
2022/03/20 01:45:16;;;;;;;1.27;0.47;;;;;;;12.14;39.65;101474.88;4952965;29;20075;-72
2022/03/20 01:47:47;;;;;;;2.15;0.93;;;;;;;12.08;39.85;101484.16;4954833;29;20457;-72
2022/03/20 01:50:17;;;;;;;1.60;0.60;;;;;;;11.98;40.87;101487.22;4945467;29;20093;-71
2022/03/20 01:52:47;;;;;;;2.45;0.85;;;;;;;11.88;40.57;101489.50;4950978;29;20043;-73
2022/03/20 01:55:16;;;;;;;0.95;0.60;;;;;;;11.82;41.97;101498.72;4952210;29;20511;-72
2022/03/20 01:57:46;;;;;;;4.57;1.10;;;;;;;11.73;42.46;101501.91;4952341;29;20106;-73
2022/03/20 02:00:17;;;;;;;2.00;0.88;;;;;;;11.61;41.69;101506.59;4951727;29;20047;-72
2022/03/20 02:02:45;;;;;;;3.03;0.57;;;;;;;11.52;42.73;101513.22;4950862;29;20134;-75
2022/03/20 02:05:16;;;;;;;4.70;0.50;;;;;;;11.42;46.40;101505.91;4950808;28;20055;-75
2022/03/20 02:07:45;;;;;;;3.08;0.50;;;;;;;11.34;45.00;101507.34;4951073;29;20079;-73
2022/03/20 02:10:14;;;;;;;3.00;1.02;;;;;;;11.28;47.67;101515.75;4951420;29;20501;-72
2022/03/20 02:12:43;;;;;;;3.40;0.40;;;;;;;11.24;46.38;101518.16;4951066;29;20047;-72
2022/03/20 02:15:14;;;;;;;0.80;0.63;;;;;;;11.19;47.35;101517.09;4951066;29;20079;-71
2022/03/20 02:17:43;;;;;;;1.40;0.30;;;;;;;11.14;45.59;101523.81;4951820;29;20051;-71
2022/03/20 02:20:13;;;;;;;1.48;0.65;;;;;;;11.05;44.62;101520.03;4950893;29;20457;-72
2022/03/20 02:22:44;;;;;;;2.63;0.52;;;;;;;11.00;46.21;101537.09;4950841;29;20134;-73
2022/03/20 02:25:17;;;;;;;1.17;0.47;;;;;;;10.95;45.54;101528.28;4951616;29;20075;-71
2022/03/20 02:27:46;;;;;;;4.53;0.95;;;;;;;10.90;46.11;101540.13;4938408;29;20079;-71
2022/03/20 02:30:18;;;;;;;1.00;0.50;;;;;;;10.81;45.31;101543.25;4950954;29;20139;-71
2022/03/20 02:32:48;;;;;;;5.78;0.60;;;;;;;10.74;45.74;101550.69;4950781;29;20055;-72
2022/03/20 02:35:18;;;;;;;7.40;0.90;;;;;;;10.69;45.88;101550.47;4951189;29;20050;-72
2022/03/20 02:37:51;;;;;;;2.50;0.98;;;;;;;10.62;46.22;101559.69;4949854;29;20059;-71
2022/03/20 02:40:22;;;;;;;1.65;1.13;;;;;;;10.56;46.19;101574.97;4950844;28;20051;-73
2022/03/20 02:42:53;;;;;;;3.80;0.80;;;;;;;10.50;46.28;101574.72;4951776;28;20134;-72
2022/03/20 02:45:22;;;;;;;1.80;1.00;;;;;;;10.44;47.16;101590.84;4953443;29;20125;-72
2022/03/20 02:47:52;;;;;;;2.22;0.68;;;;;;;10.36;45.91;101591.34;4951329;29;20527;-71
2022/03/20 02:50:22;;;;;;;3.53;1.00;;;;;;;10.27;46.33;101603.00;4944892;29;20083;-71
2022/03/20 02:52:53;;;;;;;4.07;0.82;;;;;;;10.18;45.83;101592.25;4950505;29;20564;-72
2022/03/20 02:55:23;;;;;;;4.32;0.93;;;;;;;10.07;45.99;101596.94;4950592;29;20090;-73
2022/03/20 02:57:53;;;;;;;2.20;1.20;;;;;;;10.01;46.41;101598.38;4950237;28;20109;-72
2022/03/20 03:00:25;;;;;;;1.80;0.65;;;;;;;9.94;47.11;101596.31;4950523;28;20055;-71
2022/03/20 03:02:55;;;;;;;6.28;1.20;;;;;;;9.89;47.66;101603.88;4947825;28;20082;-72
2022/03/20 03:05:24;;;;;;;4.45;1.17;;;;;;;9.85;47.56;101610.63;4939655;29;20067;-73
2022/03/20 03:10:59;;;;;;;4.85;2.00;;;;;;;9.73;47.99;101607.44;4939217;29;20167;-72
2022/03/20 03:13:29;;;;;;;4.60;1.45;;;;;;;9.66;49.17;101620.91;4950122;29;20058;-73
2022/03/20 03:15:59;;;;;;;5.28;2.05;;;;;;;9.59;49.00;101618.84;4950659;29;20051;-72
2022/03/20 03:18:28;;;;;;;4.25;2.20;;;;;;;9.54;49.30;101625.50;4950778;29;20094;-71
2022/03/20 03:20:57;;;;;;;3.67;2.03;;;;;;;9.48;49.73;101630.34;4951147;29;20059;-72
2022/03/20 03:23:29;;;;;;;4.82;1.77;;;;;;;9.42;49.00;101637.00;4939800;29;20052;-71
2022/03/20 03:25:58;;;;;;;6.28;1.52;;;;;;;9.37;50.38;101642.78;4950764;29;20051;-71
2022/03/20 03:28:34;;;;;;;2.28;1.15;;;;;;;9.32;50.43;101634.81;4950632;29;20043;-75
2022/03/20 03:31:03;;;;;;;2.75;0.90;;;;;;;9.23;50.74;101626.59;4952297;28;20083;-75
2022/03/20 03:33:32;;;;;;;7.80;1.50;;;;;;;9.22;50.66;101642.91;4949963;29;20130;-75
2022/03/20 03:35:59;;;;;;;4.80;1.58;;;;;;;9.18;51.44;101651.31;4938607;29;20048;-73
2022/03/20 03:38:34;;;;;;;6.25;1.63;;;;;;;9.11;51.33;101651.81;4951376;29;20047;-74
2022/03/20 03:41:02;;;;;;;4.03;1.05;;;;;;;9.08;52.12;101664.59;4952090;29;20134;-74
2022/03/20 03:43:31;;;;;;;5.10;1.00;;;;;;;9.03;53.13;101651.44;4951286;28;20085;-72
2022/03/20 03:45:59;;;;;;;4.97;1.52;;;;;;;8.96;52.83;101652.81;4950801;29;20055;-75
2022/03/20 03:48:28;;;;;;;3.55;1.10;;;;;;;8.88;53.96;101651.53;4951188;28;20134;-72
2022/03/20 03:50:57;;;;;;;5.50;1.38;;;;;;;8.79;55.66;101651.06;4950313;29;20047;-77
2022/03/20 03:53:25;;;;;;;6.85;1.40;;;;;;;8.73;55.79;101653.34;4952161;28;20043;-75
2022/03/20 03:55:55;;;;;;;6.20;1.30;;;;;;;8.69;55.59;101669.50;4953781;29;20138;-75
2022/03/20 03:58:24;;;;;;;3.13;1.63;;;;;;;8.60;57.84;101664.72;4940341;29;20085;-73
2022/03/20 04:00:52;;;;;;;7.38;1.92;;;;;;;8.53;56.37;101662.63;4953886;28;20137;-75
2022/03/20 04:03:20;;;;;;;5.55;1.58;;;;;;;8.49;55.83;101671.91;4953076;28;20098;-74
2022/03/20 04:05:49;;;;;;;3.60;1.55;;;;;;;8.46;55.45;101664.00;4953664;29;20139;-74
2022/03/20 04:08:18;;;;;;;3.83;1.65;;;;;;;8.39;58.74;101662.75;4953744;29;20126;-74
2022/03/20 04:10:46;;;;;;;6.75;1.88;;;;;;;8.37;60.28;101676.38;4953813;29;20055;-73
2022/03/20 04:13:16;;;;;;;2.85;1.40;;;;;;;8.33;58.07;101674.44;4952916;29;20058;-75
2022/03/20 04:15:45;;;;;;;2.67;1.45;;;;;;;8.25;61.50;101689.50;4953826;29;20055;-74
2022/03/20 04:18:14;;;;;;;4.40;1.10;;;;;;;8.19;61.57;101679.75;4953571;29;20051;-74
2022/03/20 04:20:44;;;;;;;3.55;1.27;;;;;;;8.13;59.71;101687.16;4940376;29;20114;-74
2022/03/20 04:25:58;;;;;;;3.95;1.20;;;;;;;8.05;60.61;101692.69;4940859;29;20070;-74
2022/03/20 04:28:29;;;;;;;3.20;1.63;;;;;;;8.01;60.55;101693.31;4953474;29;20079;-74
2022/03/20 04:30:57;;;;;;;1.48;1.15;;;;;;;7.98;60.46;101699.22;4953078;29;20051;-73
2022/03/20 04:33:27;;;;;;;2.08;1.10;;;;;;;7.93;60.01;101698.06;4952552;29;20493;-74
2022/03/20 04:35:55;;;;;;;2.50;1.17;;;;;;;7.87;60.37;101701.19;4952922;29;20055;-74
2022/03/20 04:38:25;;;;;;;4.68;1.27;;;;;;;7.84;60.10;101702.72;4955409;29;20535;-74
2022/03/20 04:40:54;;;;;;;5.40;1.35;;;;;;;7.79;61.26;101698.97;4957370;29;20110;-73
2022/03/20 04:43:23;;;;;;;1.38;1.15;;;;;;;7.72;61.59;101703.81;4955301;28;20062;-73
2022/03/20 04:45:53;;;;;;;3.92;1.27;;;;;;;7.65;60.86;101701.69;4954924;29;20055;-73
2022/03/20 04:59:22;;;;;;;6.82;1.40;;;;;;;7.37;61.34;101713.78;4953218;29;20424;-73
2022/03/20 05:01:52;;;;;;;4.78;1.63;;;;;;;7.20;67.24;101711.13;4952759;29;20107;-73
2022/03/20 05:04:21;;;;;;;2.85;1.25;;;;;;;6.97;67.94;101722.63;4951988;28;20095;-72
2022/03/20 05:06:49;;;;;;;3.45;1.13;;;;;;;6.84;67.74;101726.16;4940900;29;20055;-72
2022/03/20 05:14:48;;;;;;;4.13;1.40;;;;;;;6.46;70.53;101724.72;4952382;29;20089;-72
2022/03/20 05:17:18;;;;;;;2.78;1.30;;;;;;;6.46;70.57;101728.97;4952302;29;20051;-74
2022/03/20 05:19:46;;;;;;;3.78;1.13;;;;;;;6.49;70.00;101724.91;4953018;29;20048;-74
2022/03/20 05:22:23;;;;;;;4.15;1.35;;;;;;;6.53;70.60;101723.41;4952028;29;20094;-72
2022/03/20 05:24:52;;;;;;;5.20;1.45;;;;;;;6.56;70.12;101738.16;4952692;29;20051;-72
2022/03/20 05:27:20;;;;;;;4.00;1.15;;;;;;;6.56;69.65;101739.03;4952774;29;20054;-71
2022/03/20 05:29:49;;;;;;;5.97;2.00;;;;;;;6.58;69.45;101741.69;4952565;29;20051;-73
2022/03/20 05:32:20;;;;;;;2.53;1.25;;;;;;;6.57;68.84;101739.91;4951954;29;20526;-72
2022/03/20 05:34:49;;;;;;;3.67;1.55;;;;;;;6.58;68.65;101746.84;4953150;29;20434;-73
2022/03/20 05:37:17;;;;;;;4.68;1.23;;;;;;;6.57;68.57;101755.34;4953625;29;20055;-73
2022/03/20 05:39:46;;;;;;;7.22;2.58;;;;;;;6.55;68.02;101767.19;4955659;29;20131;-72
2022/03/20 05:42:21;;;;;;;11.43;3.83;;;;;;;6.53;69.11;101774.84;4952441;28;20055;-72
2022/03/20 05:44:56;;;;;;;11.05;5.13;;;;;;;6.50;69.92;101782.34;4952690;29;20110;-71
2022/03/20 05:47:27;;;;;;;10.02;4.03;;;;;;;6.52;69.59;101790.16;4952834;29;20059;-72
2022/03/20 05:49:55;;;;;;;4.47;2.35;;;;;;;6.50;68.84;101796.13;4952061;29;20058;-73
2022/03/20 05:52:24;;;;;;;8.45;2.78;;;;;;;6.48;68.95;101795.13;4951410;29;20494;-72
2022/03/20 05:54:52;;;;;;;7.53;2.72;;;;;;;6.37;70.72;101791.00;4951755;29;20054;-72
2022/03/20 06:00:16;;;;;;;5.72;2.63;;;;;;;6.38;74.01;101790.19;4951626;29;20082;-73
2022/03/20 06:02:46;;;;;;;4.00;2.28;;;;;;;6.39;73.86;101804.84;4941122;29;20047;-72
2022/03/20 06:05:16;;;;;;;8.02;2.38;;;;;;;6.36;74.04;101799.47;4952020;29;20044;-72
2022/03/20 06:07:46;;;;;;;9.60;2.50;;;;;;;6.31;74.95;101803.44;4951006;29;20051;-73
2022/03/20 06:10:16;;;;;;;7.80;2.58;;;;;;;6.22;73.74;101797.72;4951716;29;20047;-72
2022/03/20 06:12:44;;;;;;;5.43;2.20;;;;;;;6.13;73.66;101799.69;4951338;28;20106;-73
2022/03/20 06:15:14;;;;;;;4.03;2.30;;;;;;;6.02;74.01;101806.72;4951531;28;20050;-73
2022/03/20 06:17:44;;;;;;;4.45;2.33;;;;;;;5.94;74.64;101823.28;4950924;29;20058;-72
2022/03/20 06:20:16;;;;;;;5.57;2.35;;;;;;;5.95;75.03;101817.38;4951440;29;20130;-73
2022/03/20 06:22:47;;;;;;;3.05;1.77;;;;;;;5.97;74.63;101806.41;4950865;29;20043;-73
2022/03/20 06:25:15;;;;;;;3.65;2.33;;;;;;;5.98;74.44;101826.19;4951294;29;20062;-72
2022/03/20 06:27:48;;;;;;;8.57;2.42;;;;;;;5.98;74.27;101828.75;4952136;28;20130;-72
2022/03/20 06:30:18;;;;;;;3.55;2.47;;;;;;;5.99;73.40;101832.22;4951661;28;20065;-72
2022/03/20 06:32:47;;;;;;;4.72;1.88;;;;;;;5.97;73.24;101829.53;4950663;29;20051;-72
2022/03/20 06:35:18;;;;;;;3.90;1.95;;;;;;;5.95;73.29;101825.97;4951545;28;20059;-72
2022/03/20 06:37:49;;;;;;;8.43;2.92;;;;;;;5.93;73.66;101834.34;4955590;29;20066;-71
2022/03/20 06:40:18;;;;;;;9.07;2.22;;;;;;;5.83;75.11;101840.56;4952830;28;20090;-71
2022/03/20 06:42:46;;;;;;;4.88;1.98;;;;;;;5.81;76.68;101840.44;4951398;28;20055;-72
2022/03/20 06:45:15;;;;;;;9.60;2.17;;;;;;;5.81;76.46;101845.59;4951607;28;20108;-72
2022/03/20 06:47:45;;;;;;;6.18;2.38;;;;;;;5.81;76.21;101844.69;4951549;29;20118;-72
2022/03/20 06:50:16;;;;;;;5.45;3.22;;;;;;;5.81;77.15;101837.88;4951155;29;20532;-73
2022/03/20 06:52:45;;;;;;;6.35;2.00;;;;;;;5.78;76.07;101840.25;4950604;29;20089;-71
2022/03/20 06:55:15;;;;;;;13.25;1.90;;;;;;;5.70;76.75;101846.53;4951465;29;20075;-72
2022/03/20 06:57:45;;;;;;;6.65;2.00;;;;;;;5.59;77.07;101850.06;4950713;29;20146;-73
2022/03/20 07:00:16;;;;;;;5.55;1.83;;;;;;;5.54;77.36;101851.44;4951277;29;20106;-73
2022/03/20 07:02:44;;;;;;;8.20;1.77;;;;;;;5.49;78.56;101843.44;4950501;29;20481;-73
2022/03/20 07:05:13;;;;;;;3.60;1.45;;;;;;;5.47;78.93;101845.00;4938522;29;20103;-72
2022/03/20 07:07:43;;;;;;;4.55;1.35;;;;;;;5.52;79.64;101850.44;4951125;29;20055;-73
2022/03/20 07:10:12;;;;;;;6.75;1.88;;;;;;;5.54;79.25;101848.88;4950740;29;20047;-72
2022/03/20 07:12:40;;;;;;;4.60;1.77;;;;;;;5.55;78.89;101861.84;4950689;28;20043;-73
2022/03/20 07:15:09;;;;;;;11.18;1.48;;;;;;;5.57;78.02;101865.41;4950989;28;20102;-72
2022/03/20 07:17:38;;;;;;;4.45;1.85;;;;;;;5.56;78.35;101862.72;4950926;29;20125;-72
2022/03/20 07:20:10;;;;;;;9.07;1.88;;;;;;;5.56;77.90;101865.28;4950992;29;20086;-71
2022/03/20 07:22:39;;;;;;;3.35;1.65;;;;;;;5.55;78.42;101866.09;4950703;29;20126;-72
2022/03/20 07:30:42;;;;;;;8.10;2.03;;;;;;;5.36;82.74;101874.19;4955136;29;20452;-72
2022/03/20 07:33:11;;;;;;;5.53;2.00;;;;;;;5.29;83.88;101875.47;4954004;29;20171;-72
2022/03/20 07:35:42;;;;;;;4.90;2.08;;;;;;;5.24;83.15;101872.59;4954781;29;20489;-72
2022/03/20 07:38:10;;;;;;;2.70;1.80;;;;;;;5.26;82.93;101875.25;4957874;29;20051;-72
2022/03/20 07:40:47;;;;;;;4.18;1.13;;;;;;;5.30;82.42;101878.91;4954913;29;20057;-72
2022/03/20 07:43:16;;;;;;;6.80;2.00;;;;;;;5.33;82.24;101879.13;4953944;28;20094;-72
2022/03/20 07:45:44;;;;;;;12.27;1.42;;;;;;;5.35;82.23;101870.75;4954420;29;20057;-72
2022/03/20 07:48:13;;;;;;;4.50;1.20;;;;;;;5.38;82.69;101867.50;4954103;29;20111;-72
2022/03/20 07:50:42;;;;;;;2.08;1.10;;;;;;;5.40;82.63;101876.19;4954077;29;20075;-72
2022/03/20 07:53:10;;;;;;;3.05;1.60;;;;;;;5.32;82.07;101846.56;4953770;29;20076;-73
2022/03/20 07:55:40;;;;;;;2.83;1.50;;;;;;;5.38;83.51;101854.66;4943182;29;20111;-73
2022/03/20 07:58:09;;;;;;;5.25;1.42;;;;;;;5.32;86.46;101867.09;4951951;29;20512;-74
2022/03/20 08:00:40;;;;;;;4.57;1.50;;;;;;;5.29;89.82;101869.44;4953753;29;20051;-72
2022/03/20 08:03:08;;;;;;;4.78;1.25;;;;;;;5.31;92.52;101866.19;4953763;29;20103;-72
2022/03/20 08:05:37;;;;;;;1.88;0.88;;;;;;;5.39;92.43;101877.00;4940385;29;20106;-73
2022/03/20 08:08:06;;;;;;;2.90;1.92;;;;;;;5.43;92.90;101876.41;4953537;29;20134;-72
2022/03/20 08:10:34;;;;;;;5.85;1.83;;;;;;;5.49;93.90;101871.69;4953562;29;20079;-73
2022/03/20 08:13:05;;;;;;;7.13;2.05;;;;;;;5.54;93.70;101865.16;4953549;29;20142;-73
2022/03/20 08:15:33;;;;;;;3.05;1.75;;;;;;;5.57;93.29;101877.34;4953881;29;20239;-72
2022/03/20 08:18:02;;;;;;;4.95;1.63;;;;;;;5.62;93.55;101874.28;4953633;29;20138;-73
2022/03/20 08:20:30;;;;;;;3.22;1.40;;;;;;;5.64;94.27;101876.97;4953639;29;20051;-72
2022/03/20 08:22:59;;;;;;;6.80;2.83;;;;;;;5.68;93.88;101884.09;4955321;29;20504;-72
2022/03/20 08:25:27;;;;;;;4.40;2.47;;;;;;;5.69;93.16;101869.56;4954828;29;20055;-71
2022/03/20 08:27:56;;;;;;;3.83;1.88;;;;;;;5.66;94.75;101876.28;4954819;29;20102;-70
2022/03/20 08:30:26;;;;;;;4.95;1.77;;;;;;;5.60;99.34;101872.41;4953475;29;20051;-73
2022/03/20 08:32:55;;;;;;;3.35;1.55;;;;;;;5.56;100.00;101886.69;4953672;29;20110;-73
2022/03/20 08:35:24;;;;;;;5.25;1.95;;;;;;;5.55;100.00;101890.06;4953338;29;20505;-72
2022/03/20 08:37:54;;;;;;;8.35;1.55;;;;;;;5.59;100.00;101888.59;4956796;29;20055;-73
2022/03/20 08:40:24;;;;;;;2.67;1.00;;;;;;;5.64;100.00;101892.38;4953426;28;20051;-72
2022/03/20 08:42:54;;;;;;;3.03;1.45;;;;;;;5.66;100.00;101896.81;4953381;28;20059;-72
2022/03/20 08:45:26;;;;;;;2.85;1.70;;;;;;;5.68;100.00;101902.06;4953871;29;20481;-72
2022/03/20 08:47:55;;;;;;;3.78;1.15;;;;;;;5.73;100.00;101902.38;4953694;29;20073;-72
2022/03/20 08:50:23;;;;;;;3.97;1.67;;;;;;;5.77;100.00;101900.13;4953051;29;20062;-72
2022/03/20 08:52:53;;;;;;;4.93;1.35;;;;;;;5.80;100.00;101910.59;4953026;29;20055;-72
2022/03/20 08:55:22;;;;;;;2.38;1.27;;;;;;;5.81;100.00;101911.47;4953525;29;20062;-71
2022/03/20 08:57:52;;;;;;;2.42;1.20;;;;;;;5.83;100.00;101909.91;4952890;29;20059;-72
2022/03/20 09:00:22;;;;;;;8.10;1.67;;;;;;;5.86;100.00;101908.44;4953012;29;20536;-72
2022/03/20 09:02:53;;;;;;;3.97;1.77;;;;;;;5.91;100.00;101906.19;4952898;29;20167;-72
2022/03/20 09:05:22;;;;;;;3.35;1.33;;;;;;;5.95;100.00;101915.00;4952897;29;20055;-71
2022/03/20 09:07:53;;;;;;;3.10;1.30;;;;;;;5.97;100.00;101919.44;4953047;29;20134;-70
2022/03/20 09:10:22;;;;;;;3.10;1.17;;;;;;;5.99;100.00;101911.84;4952489;29;20062;-71
2022/03/20 09:12:50;;;;;;;3.42;0.90;;;;;;;6.00;100.00;101899.13;4952361;29;20146;-73
2022/03/20 09:15:19;;;;;;;7.32;0.85;;;;;;;6.02;100.00;101902.66;4952896;29;20130;-72
2022/03/20 09:20:36;;;;;;;3.88;0.90;;;;;;;6.01;100.00;101902.56;4940514;29;20121;-72
2022/03/20 09:23:05;;;;;;;1.65;1.05;;;;;;;5.98;100.00;101905.84;4952043;29;20098;-72
2022/03/20 09:25:33;;;;;;;0.85;0.55;;;;;;;5.93;100.00;101912.28;4938856;29;20440;-73
2022/03/20 09:28:02;;;;;;;4.38;1.00;;;;;;;5.92;100.00;101912.22;4951714;29;20047;-71
2022/03/20 09:30:31;;;;;;;2.35;0.80;;;;;;;5.93;100.00;101911.41;4952031;29;20134;-72
2022/03/20 09:33:01;;;;;;;2.05;0.77;;;;;;;5.96;100.00;101922.81;4952106;29;20688;-71
2022/03/20 09:35:29;;;;;;;2.03;0.68;;;;;;;5.97;100.00;101924.59;4955739;29;20051;-71
2022/03/20 09:38:00;;;;;;;1.35;0.50;;;;;;;5.95;100.00;101922.72;4955802;29;20090;-72
2022/03/20 09:40:28;;;;;;;1.45;0.80;;;;;;;5.90;100.00;101912.09;4952483;29;20555;-72
2022/03/20 09:42:57;;;;;;;3.28;0.68;;;;;;;5.86;100.00;101920.38;4952417;28;20501;-72
2022/03/20 09:45:25;;;;;;;1.70;0.65;;;;;;;5.84;100.00;101921.94;4952167;29;20075;-72
2022/03/20 09:47:55;;;;;;;3.85;0.80;;;;;;;5.86;100.00;101931.56;4951900;29;20054;-72
2022/03/20 09:50:24;;;;;;;2.33;0.65;;;;;;;5.89;100.00;101938.59;4951834;28;20054;-72
2022/03/20 09:52:52;;;;;;;1.13;0.65;;;;;;;5.90;100.00;101937.78;4951023;29;20073;-71
2022/03/20 09:55:22;;;;;;;2.95;1.00;;;;;;;5.90;100.00;101948.06;4952036;29;20061;-72
2022/03/20 09:57:56;;;;;;;1.30;0.60;;;;;;;5.89;100.00;101941.16;4951146;29;20615;-72
2022/03/20 10:03:17;;;;;;;;;;;;;;;5.88;100.00;101945.38;5120662;23;20060;-73
2022/03/20 10:05:45;;;;;;;2.72;0.93;;;;;;;5.90;100.00;101950.63;4939959;29;19982;-73
2022/03/20 10:08:17;;;;;;;2.10;0.65;;;;;;;5.91;100.00;101951.50;4946741;29;20048;-74
2022/03/20 10:10:48;;;;;;;2.27;0.37;;;;;;;5.90;100.00;101948.06;4947448;29;20046;-73
2022/03/20 10:13:16;;;;;;;1.98;0.52;;;;;;;5.91;100.00;101951.50;4948910;29;20061;-72
2022/03/20 10:15:46;;;;;;;3.50;1.08;;;;;;;5.92;100.00;101945.59;4949779;28;20492;-73
2022/03/20 10:18:17;;;;;;;3.20;0.60;;;;;;;5.92;100.00;101949.06;4943824;29;20098;-73
2022/03/20 10:20:47;;;;;;;0.85;0.50;;;;;;;5.94;100.00;101954.31;4947692;29;20102;-73
2022/03/20 10:23:36;;;;;;;1.42;0.50;;;;;;;5.95;100.00;101963.81;4938276;29;20087;-72
2022/03/20 10:26:08;;;;;;;1.05;0.60;;;;;;;5.89;100.00;101951.44;4949906;29;20059;-73
2022/03/20 10:28:38;;;;;;;4.75;0.77;;;;;;;5.94;100.00;101965.50;4949745;29;20488;-72
2022/03/20 10:31:09;;;;;;;0.77;0.50;;;;;;;5.91;100.00;101969.50;4939291;29;20553;-71
2022/03/20 10:33:40;;;;;;;1.52;0.45;;;;;;;5.91;100.00;101966.91;4946282;29;20062;-73
2022/03/20 10:36:13;;;;;;;1.83;0.50;;;;;;;5.95;100.00;101971.53;4948653;29;20508;-74
2022/03/20 10:38:42;;;;;;;2.15;0.50;;;;;;;5.97;100.00;101978.53;4949283;29;20145;-73
2022/03/20 10:41:27;;;;;;;1.60;0.38;;;;;;;6.00;100.00;101977.84;4949517;29;20066;-73
2022/03/20 10:43:57;;;;;;;1.45;0.82;;;;;;;5.99;100.00;101971.84;4936307;29;20054;-73
2022/03/20 10:46:27;;;;;;;1.52;0.80;;;;;;;6.00;100.00;101977.84;4949587;29;20055;-72
2022/03/20 10:48:58;;;;;;;1.92;0.68;;;;;;;6.00;100.00;101970.16;4935542;29;20086;-73
2022/03/20 10:51:39;;;;;;;3.13;1.23;;;;;;;6.01;100.00;101970.25;4942229;29;20097;-73
2022/03/20 10:54:09;;;;;;;5.25;0.88;;;;;;;5.95;100.00;101967.25;4930963;29;20048;-73
2022/03/20 10:56:53;;;;;;;5.93;1.05;;;;;;;5.94;100.00;101967.16;4931019;29;20554;-73
2022/03/20 10:59:22;;;;;;;5.65;1.17;;;;;;;5.97;100.00;101969.94;4930044;29;20063;-73
2022/03/20 11:01:50;;;;;;;3.40;0.50;;;;;;;5.96;100.00;101968.19;4943048;28;20051;-74
2022/03/20 11:04:20;;;;;;;2.50;1.10;;;;;;;5.91;100.00;101960.13;4935246;29;20485;-73
2022/03/20 11:06:54;;;;;;;2.75;0.77;;;;;;;5.88;100.00;101975.31;4934384;29;20055;-73
2022/03/20 11:09:23;;;;;;;2.33;0.70;;;;;;;5.86;100.00;101976.88;4933999;29;20134;-73
2022/03/20 11:11:55;;;;;;;1.42;0.73;;;;;;;5.87;100.00;101970.97;4933244;29;20103;-73
2022/03/20 11:14:25;;;;;;;6.83;0.80;;;;;;;5.91;100.00;101965.28;4934492;29;20039;-73
2022/03/20 11:16:57;;;;;;;2.15;0.57;;;;;;;5.94;100.00;101972.28;4934113;29;20055;-73
2022/03/20 11:19:29;;;;;;;0.68;0.50;;;;;;;5.95;100.00;101968.94;4933669;29;20084;-74
2022/03/20 11:22:02;;;;;;;2.28;0.82;;;;;;;5.95;100.00;101974.97;4934260;29;20293;-73
2022/03/20 11:24:30;;;;;;;;;;;;;;;5.98;100.00;101982.91;4933832;29;20071;-73
2022/03/20 11:27:02;;;;;;;3.25;0.88;;;;;;;5.99;100.00;101979.53;4934801;29;19934;-73
2022/03/20 11:29:33;;;;;;;3.25;0.75;;;;;;;6.00;100.00;101983.91;4933962;29;20128;-73
2022/03/20 11:32:03;;;;;;;2.45;0.60;;;;;;;6.01;100.00;101982.22;4934059;29;20048;-73
2022/03/20 11:34:32;;;;;;;3.30;0.73;;;;;;;6.05;100.00;101979.97;4934230;29;20048;-72
2022/03/20 11:37:09;;;;;;;2.10;0.80;;;;;;;6.07;100.00;101980.97;4934225;29;20054;-73
2022/03/20 11:39:39;;;;;;;4.63;1.65;;;;;;;6.07;100.00;101975.81;4934319;29;20280;-73
2022/03/20 11:42:25;;;;;;;1.85;0.63;;;;;;;6.06;100.00;101979.16;4920372;29;20099;-74
2022/03/20 11:45:18;;;;;;;2.63;0.80;;;;;;;6.05;100.00;101987.66;4933705;29;20107;-73
2022/03/20 11:47:48;;;;;;;1.43;0.70;;;;;;;6.04;100.00;101969.56;4922726;29;20051;-73
2022/03/20 11:50:22;;;;;;;4.18;1.15;;;;;;;6.04;100.00;101980.72;4936413;29;20051;-73
2022/03/20 11:52:56;;;;;;;2.30;0.80;;;;;;;6.03;100.00;101988.34;4934240;29;20087;-73
2022/03/20 11:55:32;;;;;;;2.33;0.88;;;;;;;6.01;100.00;102005.34;4934129;29;20192;-73
2022/03/20 11:58:05;;;;;;;2.08;0.70;;;;;;;5.99;100.00;102010.38;4920911;29;20154;-73
2022/03/20 12:00:35;;;;;;;3.55;0.77;;;;;;;5.94;100.00;101996.31;4933634;29;20068;-73
2022/03/20 12:03:33;;;;;;;1.30;0.90;;;;;;;5.98;100.00;102012.81;4934408;28;20052;-73
2022/03/20 12:06:27;;;;;;;5.10;1.17;;;;;;;5.93;100.00;102014.16;4908867;29;20044;-73
2022/03/20 12:09:05;;;;;;;4.13;0.70;;;;;;;5.93;100.00;102011.59;4933341;29;20694;-73
2022/03/20 12:11:49;;;;;;;1.23;0.82;;;;;;;5.95;100.00;102012.63;4933044;29;20110;-73
2022/03/20 12:14:30;;;;;;;5.75;1.35;;;;;;;5.93;100.00;102015.03;4919974;29;20052;-73
2022/03/20 12:17:00;;;;;;;3.70;1.50;;;;;;;5.88;100.00;102012.16;4933223;29;20058;-73
2022/03/20 12:19:41;;;;;;;4.97;0.95;;;;;;;5.91;100.00;102011.50;4932807;29;20091;-73